createdAt,value
2022-10-20T00:02:09.794Z,17.63
2022-10-20T00:04:37.925Z,18.50
2022-10-20T00:07:06.422Z,19.77
2022-10-20T00:09:34.960Z,17.57
2022-10-20T00:12:03.130Z,19.67
2022-10-20T00:14:32.715Z,18.87
2022-10-20T00:17:01.565Z,20.60
2022-10-20T00:19:31.186Z,19.40
2022-10-20T00:21:59.383Z,19.20
2022-10-20T00:24:27.596Z,19.93
2022-10-20T00:26:55.952Z,21.07
2022-10-20T00:29:24.171Z,19.67
2022-10-20T00:31:52.349Z,19.73
2022-10-20T00:34:20.715Z,21.20
2022-10-20T00:36:51.544Z,21.10
2022-10-20T00:39:20.107Z,20.40
2022-10-20T00:41:48.450Z,19.83
2022-10-20T00:44:49.612Z,20.60
2022-10-20T00:47:22.112Z,19.77
2022-10-20T00:49:51.546Z,19.70
2022-10-20T00:52:23.687Z,18.27
2022-10-20T00:54:52.322Z,19.50
2022-10-20T00:57:20.610Z,19.40
2022-10-20T00:59:49.079Z,19.37
2022-10-20T01:02:17.857Z,18.80
2022-10-20T01:04:46.214Z,17.73
2022-10-20T01:07:14.582Z,20.17
2022-10-20T01:09:44.738Z,19.17
2022-10-20T01:12:23.487Z,20.13
2022-10-20T01:14:59.414Z,19.33
2022-10-20T01:17:36.574Z,18.37
2022-10-20T01:20:22.386Z,19.70
2022-10-20T01:23:32.437Z,19.70
2022-10-20T01:26:24.782Z,19.43
2022-10-20T01:28:59.345Z,19.83
2022-10-20T01:31:32.102Z,20.47
2022-10-20T01:34:09.680Z,20.90
2022-10-20T01:36:41.968Z,20.13
2022-10-20T01:39:14.058Z,20.23
2022-10-20T01:41:47.769Z,20.93
2022-10-20T01:44:19.965Z,20.50
2022-10-20T01:46:49.386Z,20.60
2022-10-20T01:49:17.898Z,21.63
2022-10-20T01:51:46.061Z,19.57
2022-10-20T01:54:24.576Z,20.10
2022-10-20T01:57:07.181Z,20.20
2022-10-20T01:59:51.506Z,20.77
2022-10-20T02:02:36.348Z,18.50
2022-10-20T02:05:19.233Z,19.37
2022-10-20T02:07:47.563Z,19.20
2022-10-20T02:10:20.896Z,19.07
2022-10-20T02:12:55.236Z,17.77
2022-10-20T02:15:27.218Z,19.07
2022-10-20T02:18:00.158Z,18.73
2022-10-20T02:20:30.473Z,18.13
2022-10-20T02:22:59.875Z,18.17
2022-10-20T02:25:29.956Z,18.33
2022-10-20T02:30:31.462Z,18.40
2022-10-20T02:32:59.942Z,18.47
2022-10-20T02:35:32.502Z,18.67
2022-10-20T02:38:01.350Z,17.43
2022-10-20T02:40:29.978Z,17.40
2022-10-20T02:42:58.530Z,17.50
2022-10-20T02:45:26.773Z,18.87
2022-10-20T02:47:56.853Z,20.10
2022-10-20T02:50:25.117Z,17.80
2022-10-20T02:52:53.991Z,18.70
2022-10-20T02:55:24.020Z,17.60
2022-10-20T02:58:04.385Z,18.67
2022-10-20T03:00:36.859Z,17.97
2022-10-20T03:03:15.080Z,17.90
2022-10-20T03:05:46.062Z,16.77
2022-10-20T03:08:15.554Z,17.90
2022-10-20T03:10:45.412Z,17.20
2022-10-20T03:13:14.400Z,19.50
2022-10-20T03:15:43.416Z,17.40
2022-10-20T03:18:13.310Z,17.90
2022-10-20T03:20:41.652Z,18.80
2022-10-20T03:23:10.393Z,17.97
2022-10-20T03:25:38.498Z,17.27
2022-10-20T03:28:07.406Z,16.43
2022-10-20T03:30:36.152Z,16.77
2022-10-20T03:33:05.517Z,16.03
2022-10-20T03:35:36.943Z,18.30
2022-10-20T03:38:06.749Z,16.60
2022-10-20T03:40:39.366Z,17.77
2022-10-20T03:43:07.582Z,16.53
2022-10-20T03:45:37.238Z,16.53
2022-10-20T03:48:06.418Z,16.93
2022-10-20T03:50:36.918Z,16.70
2022-10-20T03:53:07.285Z,18.07
2022-10-20T03:55:35.933Z,16.47
2022-10-20T03:58:06.926Z,17.57
2022-10-20T04:00:36.670Z,16.67
2022-10-20T04:03:06.201Z,17.00
2022-10-20T04:05:36.113Z,17.90
2022-10-20T04:08:05.162Z,16.53
2022-10-20T04:10:34.848Z,15.83
2022-10-20T04:13:03.849Z,16.87
2022-10-20T04:15:47.265Z,16.37
2022-10-20T04:18:17.739Z,16.87
2022-10-20T04:20:49.931Z,16.53
2022-10-20T04:23:17.998Z,15.13
2022-10-20T04:25:48.482Z,16.50
2022-10-20T04:28:18.022Z,16.60
2022-10-20T04:30:49.174Z,16.67
2022-10-20T04:33:17.912Z,17.20
2022-10-20T04:35:47.837Z,16.30
2022-10-20T04:38:16.837Z,16.20
2022-10-20T04:40:45.421Z,17.30
2022-10-20T04:43:14.042Z,16.60
2022-10-20T04:45:43.184Z,17.30
2022-10-20T04:48:12.121Z,17.27
2022-10-20T04:50:43.411Z,16.53
2022-10-20T04:53:13.117Z,17.20
2022-10-20T04:55:41.129Z,15.93
2022-10-20T04:58:09.019Z,15.97
2022-10-20T05:00:38.946Z,15.93
2022-10-20T05:03:07.099Z,16.03
2022-10-20T05:05:35.161Z,17.13
2022-10-20T05:08:04.704Z,16.47
2022-10-20T05:10:36.701Z,16.57
2022-10-20T05:13:06.830Z,16.77
2022-10-20T05:15:35.233Z,15.87
2022-10-20T05:18:04.703Z,15.40
2022-10-20T05:20:41.241Z,16.50
2022-10-20T05:26:43.136Z,17.20
2022-10-20T05:29:24.337Z,17.43
2022-10-20T05:34:46.963Z,16.27
2022-10-20T05:37:17.391Z,15.53
2022-10-20T05:39:52.970Z,16.07
2022-10-20T05:42:23.862Z,17.53
2022-10-20T05:44:52.486Z,16.07
2022-10-20T05:47:21.040Z,17.33
2022-10-20T05:49:49.977Z,18.13
2022-10-20T05:52:18.465Z,16.47
2022-10-20T05:54:47.205Z,17.17
2022-10-20T05:57:15.657Z,16.20
2022-10-20T05:59:45.598Z,16.30
2022-10-20T06:02:14.232Z,17.80
2022-10-20T06:04:42.748Z,15.97
2022-10-20T06:07:11.216Z,17.03
2022-10-20T06:09:40.570Z,15.53
2022-10-20T06:12:10.047Z,16.93
2022-10-20T06:14:39.394Z,15.60
2022-10-20T06:17:12.691Z,16.73
2022-10-20T06:19:40.747Z,16.03
2022-10-20T06:22:12.101Z,16.37
2022-10-20T06:24:40.174Z,16.70
2022-10-20T06:27:09.767Z,15.73
2022-10-20T06:29:38.413Z,17.10
2022-10-20T06:32:09.498Z,16.83
2022-10-20T06:34:37.770Z,16.20
2022-10-20T06:37:05.869Z,16.23
2022-10-20T06:39:33.974Z,17.50
2022-10-20T06:42:06.831Z,16.47
2022-10-20T06:44:36.818Z,15.63
2022-10-20T06:47:10.152Z,16.63
2022-10-20T06:49:39.739Z,16.70
2022-10-20T06:52:07.849Z,17.40
2022-10-20T06:54:36.694Z,15.77
2022-10-20T06:57:21.108Z,16.60
2022-10-20T06:59:51.606Z,15.07
2022-10-20T07:02:26.716Z,15.63
2022-10-20T07:04:59.046Z,16.20
2022-10-20T07:07:28.864Z,17.33
2022-10-20T07:09:57.232Z,16.03
2022-10-20T07:12:25.638Z,15.97
2022-10-20T07:14:54.145Z,15.53
2022-10-20T07:17:22.431Z,15.63
2022-10-20T07:19:51.235Z,14.50
2022-10-20T07:22:21.155Z,14.43
2022-10-20T07:24:49.895Z,14.10
2022-10-20T07:27:17.940Z,13.70
2022-10-20T07:29:46.017Z,15.43
2022-10-20T07:32:14.385Z,15.13
2022-10-20T07:34:43.024Z,12.83
2022-10-20T07:37:13.710Z,12.27
2022-10-20T07:39:43.486Z,13.13
2022-10-20T07:42:12.267Z,14.17
2022-10-20T07:44:41.129Z,12.60
2022-10-20T07:47:09.647Z,13.83
2022-10-20T07:49:44.868Z,13.83
2022-10-20T07:52:13.796Z,12.33
2022-10-20T07:54:43.552Z,12.57
2022-10-20T07:57:11.831Z,12.77
2022-10-20T07:59:41.871Z,12.53
2022-10-20T08:02:13.700Z,12.47
2022-10-20T08:04:44.035Z,11.97
2022-10-20T08:07:12.476Z,13.03
2022-10-20T08:09:43.154Z,12.40
2022-10-20T08:12:13.214Z,13.30
2022-10-20T08:14:41.511Z,12.57
2022-10-20T08:17:10.187Z,12.13
2022-10-20T08:19:48.022Z,12.40
2022-10-20T08:22:16.403Z,11.70
2022-10-20T08:24:48.421Z,11.50
2022-10-20T08:27:17.389Z,10.30
2022-10-20T08:29:55.003Z,10.60
2022-10-20T08:32:28.614Z,11.90
2022-10-20T08:34:56.945Z,10.80
2022-10-20T08:37:25.051Z,11.73
2022-10-20T08:39:55.087Z,11.30
2022-10-20T08:42:23.839Z,11.23
2022-10-20T08:44:52.491Z,11.63
2022-10-20T08:47:30.883Z,11.07
2022-10-20T08:50:02.534Z,11.07
2022-10-20T08:52:30.843Z,10.27
2022-10-20T08:55:01.001Z,10.03
2022-10-20T08:57:34.572Z,11.27
2022-10-20T09:00:16.012Z,10.80
2022-10-20T09:02:44.541Z,10.47
2022-10-20T09:05:19.026Z,9.53
2022-10-20T09:07:52.422Z,9.80
2022-10-20T09:10:30.570Z,10.40
2022-10-20T09:13:02.736Z,10.33
2022-10-20T09:15:34.198Z,9.67
2022-10-20T09:18:09.916Z,9.60
2022-10-20T09:20:47.626Z,9.17
2022-10-20T09:23:39.008Z,9.90
2022-10-20T09:26:19.665Z,9.43
2022-10-20T09:29:15.375Z,9.77
2022-10-20T09:31:45.597Z,9.60
2022-10-20T09:34:24.635Z,9.47
2022-10-20T09:36:59.573Z,9.73
2022-10-20T09:39:34.312Z,9.30
2022-10-20T09:42:09.961Z,9.33
2022-10-20T09:44:54.643Z,9.03
2022-10-20T09:47:25.138Z,9.13
2022-10-20T09:50:10.464Z,8.83
2022-10-20T09:52:48.670Z,8.57
2022-10-20T09:55:49.927Z,9.20
2022-10-20T09:58:33.079Z,9.37
2022-10-20T10:04:10.878Z,10.10
2022-10-20T10:06:43.514Z,9.37
2022-10-20T10:09:28.200Z,9.67
2022-10-20T10:12:01.587Z,9.20
2022-10-20T10:14:34.991Z,8.53
2022-10-20T10:17:03.815Z,8.33
2022-10-20T10:19:34.179Z,8.80
2022-10-20T10:22:06.946Z,9.13
2022-10-20T10:24:40.682Z,8.80
2022-10-20T10:27:25.487Z,8.93
2022-10-20T10:29:55.828Z,7.23
2022-10-20T10:32:30.876Z,7.80
2022-10-20T10:35:25.050Z,7.20
2022-10-20T10:37:54.437Z,8.10
2022-10-20T10:40:25.257Z,7.63
2022-10-20T10:43:08.205Z,8.03
2022-10-20T10:45:44.703Z,7.73
2022-10-20T10:48:24.974Z,7.80
2022-10-20T10:50:57.197Z,7.53
2022-10-20T10:53:29.916Z,7.03
2022-10-20T10:56:02.457Z,7.70
2022-10-20T10:58:37.550Z,7.00
2022-10-20T11:01:21.966Z,6.90
2022-10-20T11:04:01.296Z,6.80
2022-10-20T11:06:36.882Z,7.07
2022-10-20T11:09:14.940Z,6.40
2022-10-20T11:12:01.384Z,6.23
2022-10-20T11:14:41.643Z,6.33
2022-10-20T11:17:26.050Z,5.73
2022-10-20T11:23:02.588Z,5.53
2022-10-20T11:25:36.397Z,5.53
2022-10-20T11:28:29.478Z,5.73
2022-10-20T11:31:02.907Z,5.50
2022-10-20T11:33:38.082Z,5.87
2022-10-20T11:36:23.094Z,5.53
2022-10-20T11:38:54.159Z,5.33
2022-10-20T11:41:28.485Z,5.67
2022-10-20T11:44:03.163Z,5.30
2022-10-20T11:46:36.749Z,5.30
2022-10-20T11:49:08.370Z,5.00
2022-10-20T11:51:47.291Z,4.33
2022-10-20T11:54:47.888Z,5.20
2022-10-20T11:57:25.811Z,5.00
2022-10-20T12:00:15.435Z,5.10
2022-10-20T12:03:11.124Z,5.30
2022-10-20T12:06:03.363Z,4.53
2022-10-20T12:08:41.733Z,4.73
2022-10-20T12:11:31.761Z,5.77
2022-10-20T12:14:04.126Z,5.10
2022-10-20T12:16:51.489Z,5.33
2022-10-20T12:19:25.593Z,5.10
2022-10-20T12:22:03.751Z,4.30
2022-10-20T12:24:34.272Z,4.37
2022-10-20T12:27:19.607Z,4.33
2022-10-20T12:29:51.100Z,4.93
2022-10-20T12:32:46.889Z,5.10
2022-10-20T12:35:45.781Z,4.73
2022-10-20T12:38:19.219Z,4.80
2022-10-20T12:40:51.692Z,5.57
2022-10-20T12:43:28.650Z,5.77
2022-10-20T12:45:59.963Z,6.40
2022-10-20T12:48:30.248Z,5.37
2022-10-20T12:51:05.723Z,5.30
2022-10-20T12:53:36.244Z,5.50
2022-10-20T12:56:09.356Z,5.70
2022-10-20T12:58:38.772Z,5.30
2022-10-20T13:01:10.915Z,5.70
2022-10-20T13:03:47.084Z,5.27
2022-10-20T13:06:41.120Z,6.40
2022-10-20T13:09:25.002Z,5.80
2022-10-20T13:12:06.304Z,5.53
2022-10-20T13:14:52.178Z,5.00
2022-10-20T13:17:39.789Z,5.80
2022-10-20T13:20:23.189Z,5.33
2022-10-20T13:22:54.843Z,6.03
2022-10-20T13:25:40.190Z,5.80
2022-10-20T13:28:18.386Z,6.03
2022-10-20T13:30:59.838Z,5.80
2022-10-20T13:33:51.133Z,6.03
2022-10-20T13:36:26.273Z,5.87
2022-10-20T13:38:58.292Z,5.73
2022-10-20T13:41:34.092Z,6.57
2022-10-20T13:44:11.727Z,5.93
2022-10-20T13:46:49.036Z,5.90
2022-10-20T13:49:33.601Z,5.87
2022-10-20T13:55:06.916Z,5.90
2022-10-20T13:57:38.651Z,6.30
2022-10-20T14:00:19.045Z,6.03
2022-10-20T14:02:55.249Z,5.93
2022-10-20T14:05:26.321Z,5.93
2022-10-20T14:07:55.413Z,5.43
2022-10-20T14:10:31.827Z,6.53
2022-10-20T14:13:03.685Z,5.60
2022-10-20T14:15:34.293Z,5.60
2022-10-20T14:18:04.221Z,5.33
2022-10-20T14:20:34.923Z,5.70
2022-10-20T14:23:05.137Z,5.50
2022-10-20T14:25:34.919Z,6.20
2022-10-20T14:28:07.509Z,5.83
2022-10-20T14:30:40.145Z,5.90
2022-10-20T14:33:16.576Z,6.17
2022-10-20T14:35:47.052Z,5.97
2022-10-20T14:38:23.477Z,6.10
2022-10-20T14:40:53.360Z,6.23
2022-10-20T14:43:29.120Z,6.00
2022-10-20T14:45:59.445Z,6.40
2022-10-20T14:48:30.640Z,6.60
2022-10-20T14:50:59.982Z,7.40
2022-10-20T14:53:32.175Z,5.97
2022-10-20T14:56:02.702Z,6.70
2022-10-20T14:58:34.695Z,6.47
2022-10-20T15:01:17.354Z,5.80
2022-10-20T15:03:46.396Z,6.77
2022-10-20T15:06:18.159Z,6.27
2022-10-20T15:08:55.303Z,6.50
2022-10-20T15:11:24.681Z,6.93
2022-10-20T15:13:56.291Z,6.13
2022-10-20T15:16:42.258Z,6.60
2022-10-20T15:19:29.370Z,6.40
2022-10-20T15:22:03.539Z,6.53
2022-10-20T15:24:32.583Z,6.67
2022-10-20T15:27:02.935Z,5.97
2022-10-20T15:29:34.871Z,6.90
2022-10-20T15:32:04.379Z,6.60
2022-10-20T15:34:33.529Z,6.53
2022-10-20T15:37:02.665Z,7.40
2022-10-20T15:39:32.273Z,6.27
2022-10-20T15:42:01.352Z,6.50
2022-10-20T15:44:30.921Z,6.53
2022-10-20T15:47:01.617Z,6.63
2022-10-20T15:49:30.671Z,6.80
2022-10-20T15:52:00.136Z,7.27
2022-10-20T15:54:28.661Z,6.73
2022-10-20T15:56:57.716Z,7.03
2022-10-20T15:59:27.506Z,7.23
2022-10-20T16:01:56.735Z,7.37
2022-10-20T16:04:28.568Z,6.40
2022-10-20T16:07:02.641Z,6.43
2022-10-20T16:09:32.389Z,6.30
2022-10-20T16:12:01.683Z,6.17
2022-10-20T16:14:31.036Z,7.17
2022-10-20T16:17:00.065Z,5.97
2022-10-20T16:19:38.733Z,6.30
2022-10-20T16:22:08.172Z,5.93
2022-10-20T16:24:37.244Z,5.53
2022-10-20T16:27:06.505Z,7.20
2022-10-20T16:29:35.786Z,6.53
2022-10-20T16:32:05.395Z,7.03
2022-10-20T16:34:36.035Z,6.23
2022-10-20T16:37:05.160Z,6.10
2022-10-20T16:39:34.836Z,5.87
2022-10-20T16:42:04.026Z,5.73
2022-10-20T16:44:33.189Z,6.37
2022-10-20T16:47:03.726Z,6.00
2022-10-20T16:49:32.889Z,6.30
2022-10-20T16:52:04.304Z,5.83
2022-10-20T16:54:33.421Z,6.00
2022-10-20T16:57:02.628Z,5.80
2022-10-20T16:59:31.666Z,6.07
2022-10-20T17:02:00.719Z,6.23
2022-10-20T17:04:29.996Z,6.17
2022-10-20T17:06:59.151Z,5.10
2022-10-20T17:09:30.084Z,6.17
2022-10-20T17:11:59.304Z,5.53
2022-10-20T17:14:28.459Z,6.30
2022-10-20T17:16:57.577Z,5.87
2022-10-20T17:19:26.604Z,6.00
2022-10-20T17:21:56.351Z,6.50
2022-10-20T17:24:25.489Z,6.13
2022-10-20T17:26:57.517Z,5.80
2022-10-20T17:29:26.462Z,6.57
2022-10-20T17:31:55.544Z,6.43
2022-10-20T17:34:24.848Z,6.50
2022-10-20T17:36:56.406Z,5.77
2022-10-20T17:39:25.477Z,6.20
2022-10-20T17:41:55.956Z,5.97
2022-10-20T17:44:25.176Z,6.10
2022-10-20T17:46:54.372Z,6.23
2022-10-20T17:49:23.682Z,6.43
2022-10-20T17:51:52.638Z,6.30
2022-10-20T17:54:51.304Z,5.97
2022-10-20T17:57:21.814Z,6.23
2022-10-20T17:59:53.939Z,5.90
2022-10-20T18:02:24.884Z,5.93
2022-10-20T18:04:54.060Z,6.30
2022-10-20T18:07:23.460Z,5.93
2022-10-20T18:09:52.564Z,5.97
2022-10-20T18:12:23.402Z,5.57
2022-10-20T18:14:52.406Z,5.50
2022-10-20T18:17:21.690Z,6.80
2022-10-20T18:19:50.875Z,6.00
2022-10-20T18:22:20.086Z,6.07
2022-10-20T18:24:49.397Z,6.40
2022-10-20T18:27:18.945Z,5.60
2022-10-20T18:29:49.553Z,6.50
2022-10-20T18:32:18.813Z,6.53
2022-10-20T18:34:47.813Z,5.97
2022-10-20T18:37:19.486Z,5.93
2022-10-20T18:39:48.938Z,5.50
2022-10-20T18:42:18.013Z,6.23
2022-10-20T18:44:47.189Z,6.30
2022-10-20T18:47:17.782Z,6.60
2022-10-20T18:49:47.044Z,6.13
2022-10-20T18:52:16.558Z,6.53
2022-10-20T18:54:46.163Z,6.53
2022-10-20T18:57:29.736Z,6.97
2022-10-20T18:59:58.789Z,6.20
2022-10-20T19:02:31.527Z,6.07
2022-10-20T19:05:00.761Z,6.57
2022-10-20T19:07:30.206Z,6.37
2022-10-20T19:10:00.086Z,7.43
2022-10-20T19:12:29.856Z,6.60
2022-10-20T19:14:59.418Z,6.20
2022-10-20T19:17:31.629Z,6.10
2022-10-20T19:20:01.180Z,6.93
2022-10-20T19:22:31.479Z,7.27
2022-10-20T19:25:01.056Z,6.57
2022-10-20T19:27:31.184Z,6.60
2022-10-20T19:30:02.842Z,6.27
2022-10-20T19:32:41.630Z,5.90
2022-10-20T19:35:14.598Z,6.27
2022-10-20T19:37:44.074Z,6.30
2022-10-20T19:40:14.259Z,6.07
2022-10-20T19:42:43.923Z,7.17
2022-10-20T19:45:13.620Z,6.20
2022-10-20T19:47:45.029Z,6.73
2022-10-20T19:55:51.989Z,6.20
2022-10-20T19:58:24.237Z,6.70
2022-10-20T20:00:54.456Z,6.00
2022-10-20T20:03:25.000Z,6.37
2022-10-20T20:05:59.350Z,6.10
2022-10-20T20:08:28.551Z,6.13
2022-10-20T20:10:58.773Z,6.40
2022-10-20T20:13:28.381Z,6.43
2022-10-20T20:16:15.210Z,6.80
2022-10-20T20:18:46.058Z,7.03
2022-10-20T20:21:15.628Z,7.07
2022-10-20T20:23:58.737Z,6.80
2022-10-20T20:26:29.411Z,6.47
2022-10-20T20:28:58.995Z,6.77
2022-10-20T20:31:28.893Z,6.57
2022-10-20T20:33:59.144Z,6.47
2022-10-20T20:36:28.533Z,6.67
2022-10-20T20:38:58.922Z,6.50
2022-10-20T20:41:28.557Z,6.10
2022-10-20T20:43:57.880Z,6.73
2022-10-20T20:46:29.293Z,6.43
2022-10-20T20:49:00.084Z,6.80
2022-10-20T20:51:44.273Z,6.20
2022-10-20T20:54:13.406Z,6.80
2022-10-20T20:56:42.616Z,7.37
2022-10-20T20:59:11.888Z,6.37
2022-10-20T21:01:42.082Z,6.90
2022-10-20T21:04:12.988Z,6.07
2022-10-20T21:07:01.209Z,6.77
2022-10-20T21:09:31.296Z,6.97
2022-10-20T21:12:00.571Z,6.43
2022-10-20T21:14:30.104Z,7.17
2022-10-20T21:16:59.638Z,7.30
2022-10-20T21:19:30.379Z,7.30
2022-10-20T21:22:01.468Z,7.27
2022-10-20T21:24:30.788Z,7.50
2022-10-20T21:27:00.123Z,7.27
2022-10-20T21:29:29.377Z,8.17
2022-10-20T21:31:59.103Z,7.77
2022-10-20T21:34:30.145Z,6.80
2022-10-20T21:36:59.427Z,7.20
2022-10-20T21:39:28.900Z,7.17
2022-10-20T21:41:58.099Z,7.90
2022-10-20T21:44:27.521Z,6.73
2022-10-20T21:46:56.699Z,6.60
2022-10-20T21:49:26.218Z,8.00
2022-10-20T21:51:57.690Z,8.10
2022-10-20T21:54:27.853Z,7.20
2022-10-20T21:56:57.669Z,7.07
2022-10-20T21:59:27.561Z,6.40
2022-10-20T22:01:57.761Z,7.27
2022-10-20T22:04:29.001Z,7.30
2022-10-20T22:07:00.331Z,7.60
2022-10-20T22:09:29.592Z,7.50
2022-10-20T22:11:59.655Z,8.77
2022-10-20T22:14:30.847Z,7.27
2022-10-20T22:17:01.156Z,7.57
2022-10-20T22:19:30.342Z,8.17
2022-10-20T22:22:01.049Z,9.73
2022-10-20T22:24:30.611Z,8.13
2022-10-20T22:26:59.947Z,7.20
2022-10-20T22:29:29.851Z,7.10
2022-10-20T22:31:59.115Z,7.37
2022-10-20T22:34:28.279Z,7.20
2022-10-20T22:36:57.641Z,7.70
2022-10-20T22:39:28.221Z,7.27
2022-10-20T22:41:57.417Z,7.90
2022-10-20T22:44:26.543Z,7.13
2022-10-20T22:46:55.809Z,7.70
2022-10-20T22:49:25.057Z,6.90
2022-10-20T22:51:54.318Z,6.43
2022-10-20T22:54:24.284Z,6.67
2022-10-20T22:56:55.475Z,7.10
2022-10-20T22:59:24.708Z,7.00
2022-10-20T23:01:54.026Z,7.10
2022-10-20T23:04:23.250Z,7.37
2022-10-20T23:06:52.454Z,7.27
2022-10-20T23:09:21.783Z,6.93
2022-10-20T23:11:51.160Z,7.27
2022-10-20T23:14:21.809Z,7.70
2022-10-20T23:16:51.095Z,6.87
2022-10-20T23:19:20.338Z,7.77
2022-10-20T23:21:49.585Z,7.37
2022-10-20T23:24:18.911Z,7.23
2022-10-20T23:26:48.190Z,7.90
2022-10-20T23:29:17.581Z,7.43
2022-10-20T23:31:48.224Z,7.80
2022-10-20T23:34:17.457Z,7.60
2022-10-20T23:36:46.666Z,7.23
2022-10-20T23:39:15.996Z,7.27
2022-10-20T23:41:46.033Z,7.17
2022-10-20T23:44:15.463Z,7.83
2022-10-20T23:46:44.737Z,8.30
2022-10-20T23:49:15.715Z,7.93
2022-10-20T23:51:44.972Z,7.17
2022-10-20T23:54:14.279Z,7.60
2022-10-20T23:56:43.474Z,7.33
2022-10-20T23:59:12.890Z,7.40
